Ceres, Virginia
Current Conditions -  °F | °C
As of 2:15 PM on Friday 28 Nov 2014 (Local Time) from KMKJ Reporting Station
Scattered Clouds Scattered Clouds  
Wind Chill: 21°   Ceiling: Unl
Heat Index: 30°   Visibility: 10mi
Dew Point: 18°   Wind: 10mph
Humidity: 62%   Direction: 240°WSW
Pressure: 30.25"   Gusts: NA
Location:  37.02°N, 81.34°W
Report Text: KMKJ 281915Z AUTO 24009KT 10SM SCT026 M01/M08 A3025 RMK AO2 T10121076
Loading
Personal Weather Stations






























Interactive Weather Map New forecast layout! Learn more

10-Day Weather Forecast

Advertisements
Track Severe Weather on mobile